Time;durP1;ratioP1;P1;durP2;ratioP2;P2;SDS_P1;SDS_P2;PMS_P1;PMS_P2;Temp;Humidity;BMP_temperature;BMP_pressure;BME280_temperature;BME280_humidity;BME280_pressure;Samples;Min_cycle;Max_cycle;Signal;HPM_P1;HPM_P2
2022/04/12 00:01:07;;;;;;;10.88;5.10;;;8.60;83.30;;;;;;5035214;28;20389;-80
2022/04/12 00:03:33;;;;;;;8.57;4.50;;;8.60;83.20;;;;;;5043424;28;20029;-80
2022/04/12 00:05:59;;;;;;;10.90;5.53;;;8.60;83.30;;;;;;5044321;28;20111;-80
2022/04/12 00:08:25;;;;;;;10.82;5.70;;;8.60;83.20;;;;;;5048679;28;20150;-80
2022/04/12 00:10:51;;;;;;;15.48;6.15;;;8.60;83.00;;;;;;5044858;28;20140;-81
2022/04/12 00:13:18;;;;;;;10.07;4.53;;;8.50;83.30;;;;;;5034945;28;21030;-80
2022/04/12 00:15:44;;;;;;;10.73;5.22;;;8.50;83.70;;;;;;5036649;28;20021;-80
2022/04/12 00:20:55;;;;;;;11.15;5.03;;;8.40;83.90;;;;;;5042803;28;20120;-80
2022/04/12 00:23:21;;;;;;;8.43;5.55;;;8.40;83.90;;;;;;5043400;28;20432;-79
2022/04/12 00:25:46;;;;;;;11.13;5.88;;;8.50;84.00;;;;;;5045337;28;20099;-81
2022/04/12 00:28:14;;;;;;;10.10;5.68;;;8.50;84.20;;;;;;5040656;28;20476;-80
2022/04/12 00:30:40;;;;;;;12.13;5.80;;;8.40;84.10;;;;;;5046854;28;20029;-81
2022/04/12 00:33:06;;;;;;;10.85;5.55;;;8.50;84.10;;;;;;5048509;28;20035;-80
2022/04/12 00:35:31;;;;;;;9.95;4.82;;;8.50;84.30;;;;;;5042525;28;20150;-80
2022/04/12 00:37:57;;;;;;;10.05;5.53;;;8.50;84.10;;;;;;5047847;28;20410;-80
2022/04/12 00:40:24;;;;;;;8.50;4.93;;;8.40;84.20;;;;;;5036287;28;20032;-81
2022/04/12 00:42:51;;;;;;;9.00;4.80;;;8.40;84.20;;;;;;5044813;28;20131;-80
2022/04/12 00:45:17;;;;;;;10.95;5.30;;;8.40;84.30;;;;;;5042684;28;20044;-80
2022/04/12 00:47:44;;;;;;;10.60;5.75;;;8.40;84.40;;;;;;5044218;28;20477;-80
2022/04/12 00:50:10;;;;;;;12.50;5.60;;;8.30;84.50;;;;;;5043481;28;20387;-80
2022/04/12 00:52:43;;;;;;;13.20;5.60;;;8.30;84.60;;;;;;5040841;28;20040;-80
2022/04/12 00:55:10;;;;;;;13.48;5.53;;;8.30;84.80;;;;;;5042813;28;20025;-80
2022/04/12 00:57:36;;;;;;;13.48;5.85;;;8.30;84.90;;;;;;5050180;28;20028;-81
2022/04/12 01:00:08;;;;;;;9.30;4.78;;;8.20;85.20;;;;;;5037128;28;20124;-79
2022/04/12 01:02:34;;;;;;;10.52;5.18;;;8.20;85.40;;;;;;5043246;28;20036;-80
2022/04/12 01:05:01;;;;;;;13.73;5.45;;;8.20;85.20;;;;;;5045170;28;20052;-80
2022/04/12 01:07:28;;;;;;;8.52;5.10;;;8.20;85.50;;;;;;5044585;28;20484;-80
2022/04/12 01:09:54;;;;;;;10.82;5.25;;;8.10;85.60;;;;;;5041210;28;20071;-81
2022/04/12 01:12:21;;;;;;;13.02;5.28;;;8.10;85.60;;;;;;5038880;28;20472;-80
2022/04/12 01:14:48;;;;;;;10.77;4.95;;;8.10;85.50;;;;;;5037617;28;20123;-80
2022/04/12 01:17:15;;;;;;;9.68;5.25;;;8.10;85.80;;;;;;5040510;28;20077;-80
2022/04/12 01:19:41;;;;;;;11.30;4.90;;;8.00;85.50;;;;;;5034016;28;20025;-80
2022/04/12 01:22:13;;;;;;;12.88;5.00;;;8.00;85.60;;;;;;5038537;28;20079;-80
2022/04/12 01:24:39;;;;;;;9.63;5.40;;;7.90;85.70;;;;;;5041795;28;20021;-80
2022/04/12 01:27:05;;;;;;;11.10;5.78;;;7.90;86.10;;;;;;5044149;28;20025;-80
2022/04/12 01:29:35;;;;;;;10.45;5.50;;;7.90;86.30;;;;;;5044047;28;20025;-79
2022/04/12 01:32:08;;;;;;;11.05;4.75;;;7.80;86.60;;;;;;5048640;28;20132;-80
2022/04/12 01:34:36;;;;;;;10.98;5.80;;;7.70;86.70;;;;;;5045351;28;20021;-80
2022/04/12 01:37:03;;;;;;;7.75;4.63;;;7.80;86.90;;;;;;5042765;28;20033;-80
2022/04/12 01:39:30;;;;;;;10.80;5.70;;;7.80;87.20;;;;;;5033773;28;20025;-80
2022/04/12 01:41:56;;;;;;;11.63;6.28;;;7.80;87.00;;;;;;5041505;28;20104;-80
2022/04/12 01:44:22;;;;;;;9.32;5.00;;;7.80;87.00;;;;;;5047315;28;20044;-79
2022/04/12 01:46:47;;;;;;;9.02;4.63;;;7.90;86.80;;;;;;5046845;28;20021;-80
2022/04/12 01:49:13;;;;;;;10.40;5.55;;;7.80;86.80;;;;;;5039342;28;20363;-79
2022/04/12 01:51:39;;;;;;;10.32;5.63;;;7.80;86.80;;;;;;5038741;28;20060;-80
2022/04/12 01:54:05;;;;;;;11.15;5.88;;;7.80;87.00;;;;;;5044570;28;20055;-80
2022/04/12 01:56:32;;;;;;;9.35;5.43;;;7.90;86.90;;;;;;5040579;28;20073;-80
2022/04/12 01:58:59;;;;;;;9.77;5.15;;;7.80;86.90;;;;;;5042526;28;20156;-80
2022/04/12 02:01:25;;;;;;;12.90;5.15;;;7.80;86.80;;;;;;5051168;28;20061;-80
2022/04/12 02:03:50;;;;;;;13.77;5.30;;;7.80;86.90;;;;;;5044735;28;20506;-80
2022/04/12 02:06:16;;;;;;;9.70;5.00;;;7.70;86.70;;;;;;5050739;28;20028;-80
2022/04/12 02:08:43;;;;;;;10.98;5.68;;;7.70;87.10;;;;;;5037586;28;20025;-80
2022/04/12 02:11:09;;;;;;;13.10;5.55;;;7.70;87.20;;;;;;5043992;28;20048;-80
2022/04/12 02:13:35;;;;;;;11.35;5.75;;;7.80;86.80;;;;;;5038771;28;20033;-80
2022/04/12 02:16:00;;;;;;;11.32;4.88;;;7.90;86.50;;;;;;5033751;28;20546;-80
2022/04/12 02:18:26;;;;;;;12.13;5.80;;;7.60;87.30;;;;;;5037217;28;20078;-80
2022/04/12 02:20:51;;;;;;;10.48;5.15;;;7.60;87.70;;;;;;5030287;28;20079;-80
2022/04/12 02:23:17;;;;;;;9.95;4.97;;;7.70;87.20;;;;;;5035132;28;20025;-80
2022/04/12 02:25:43;;;;;;;9.45;5.25;;;7.80;87.00;;;;;;5041119;28;20539;-80
2022/04/12 02:28:08;;;;;;;9.00;4.72;;;7.80;87.10;;;;;;5044279;28;20028;-80
2022/04/12 02:30:34;;;;;;;8.73;5.18;;;7.60;87.20;;;;;;5040351;28;20364;-80
2022/04/12 02:33:00;;;;;;;11.55;5.63;;;7.50;87.60;;;;;;5038593;28;20037;-80
2022/04/12 02:35:25;;;;;;;10.02;5.70;;;7.40;87.70;;;;;;5043531;28;20414;-80
2022/04/12 02:37:51;;;;;;;9.63;5.43;;;7.40;87.90;;;;;;5042892;28;20044;-80
2022/04/12 02:40:20;;;;;;;10.70;5.35;;;7.30;88.10;;;;;;5042787;28;20171;-80
2022/04/12 02:42:45;;;;;;;10.07;5.55;;;7.40;88.20;;;;;;5049452;28;20502;-81
2022/04/12 02:45:11;;;;;;;10.93;5.80;;;7.40;88.40;;;;;;5036107;28;20128;-80
2022/04/12 02:47:37;;;;;;;11.68;6.75;;;7.30;88.20;;;;;;5049394;28;20036;-80
2022/04/12 02:50:03;;;;;;;9.43;5.18;;;7.30;88.20;;;;;;5033346;28;20029;-80
2022/04/12 02:52:28;;;;;;;9.63;5.40;;;7.20;88.60;;;;;;5047244;28;20048;-80
2022/04/12 02:54:54;;;;;;;10.82;6.45;;;7.20;88.80;;;;;;5039475;28;20037;-80
2022/04/12 02:57:20;;;;;;;10.48;5.47;;;7.20;88.80;;;;;;5040183;28;20037;-80
2022/04/12 02:59:45;;;;;;;10.18;5.43;;;7.10;89.50;;;;;;5044677;28;20029;-80
2022/04/12 03:02:11;;;;;;;10.73;5.47;;;7.00;89.20;;;;;;5037052;28;20116;-79
2022/04/12 03:04:37;;;;;;;11.00;4.80;;;7.10;89.20;;;;;;5039985;28;20399;-80
2022/04/12 03:07:02;;;;;;;10.45;4.93;;;7.10;89.40;;;;;;5041353;28;20044;-79
2022/04/12 03:09:28;;;;;;;9.32;5.22;;;7.00;89.70;;;;;;5040407;28;20021;-79
2022/04/12 03:11:54;;;;;;;10.50;4.78;;;7.00;89.70;;;;;;5042919;28;20048;-79
2022/04/12 03:14:20;;;;;;;12.73;5.55;;;7.00;89.80;;;;;;5029419;28;20029;-79
2022/04/12 03:16:45;;;;;;;8.48;5.35;;;6.90;90.10;;;;;;5035732;28;20048;-80
2022/04/12 03:19:11;;;;;;;9.93;5.63;;;6.70;90.50;;;;;;5029789;28;20033;-80
2022/04/12 03:21:37;;;;;;;14.27;5.40;;;6.80;90.30;;;;;;5038645;28;20033;-79
2022/04/12 03:24:03;;;;;;;9.80;5.40;;;6.80;90.20;;;;;;5039200;28;20479;-78
2022/04/12 03:26:29;;;;;;;9.35;5.13;;;7.00;90.00;;;;;;5019194;28;20119;-78
2022/04/12 03:28:55;;;;;;;9.98;5.07;;;6.90;90.10;;;;;;5022577;28;20127;-79
2022/04/12 03:31:21;;;;;;;10.18;5.68;;;6.90;90.30;;;;;;5033682;28;20090;-80
2022/04/12 03:33:47;;;;;;;11.25;6.25;;;6.80;90.30;;;;;;5045661;28;20040;-80
2022/04/12 03:36:13;;;;;;;10.15;5.50;;;6.80;90.30;;;;;;5041331;28;20036;-80
2022/04/12 03:38:48;;;;;;;9.40;5.15;;;6.90;90.20;;;;;;5041357;28;20037;-80
2022/04/12 03:41:15;;;;;;;9.77;5.25;;;6.90;90.20;;;;;;5045233;28;20083;-80
2022/04/12 03:43:40;;;;;;;12.48;5.80;;;6.90;90.30;;;;;;5042435;28;20029;-80
2022/04/12 03:46:06;;;;;;;10.80;5.57;;;6.80;90.50;;;;;;5046961;28;20121;-80
2022/04/12 03:48:32;;;;;;;13.68;6.03;;;6.70;90.70;;;;;;5049330;28;20442;-80
2022/04/12 03:50:57;;;;;;;11.20;6.10;;;6.70;90.60;;;;;;5036146;28;22014;-80
2022/04/12 03:53:23;;;;;;;9.85;4.53;;;6.60;90.70;;;;;;5037204;28;20110;-80
2022/04/12 03:55:48;;;;;;;9.93;5.55;;;6.60;90.70;;;;;;5042945;28;20033;-80
2022/04/12 03:58:19;;;;;;;9.02;4.88;;;6.60;90.70;;;;;;5039996;28;20036;-80
2022/04/12 04:00:46;;;;;;;10.48;6.05;;;6.60;90.80;;;;;;5035663;28;20040;-80
2022/04/12 04:03:12;;;;;;;12.27;5.78;;;6.60;90.90;;;;;;5040279;28;20040;-80
2022/04/12 04:05:37;;;;;;;10.70;5.68;;;6.60;90.80;;;;;;5043058;28;20529;-80
2022/04/12 04:08:03;;;;;;;9.68;5.45;;;6.60;90.90;;;;;;5046163;28;20029;-80
2022/04/12 04:10:29;;;;;;;10.20;5.80;;;6.70;90.80;;;;;;5042002;28;20045;-80
2022/04/12 04:12:54;;;;;;;7.85;4.47;;;6.80;90.70;;;;;;5033987;28;20033;-80
2022/04/12 04:15:20;;;;;;;12.48;5.45;;;6.80;90.60;;;;;;5035928;28;20040;-80
2022/04/12 04:17:47;;;;;;;11.05;5.85;;;7.00;90.30;;;;;;5043636;28;20479;-80
2022/04/12 04:20:16;;;;;;;14.15;6.10;;;7.20;90.20;;;;;;5029154;28;20040;-80
2022/04/12 04:22:42;;;;;;;11.82;6.18;;;7.00;90.50;;;;;;5030506;28;20157;-81
2022/04/12 04:25:10;;;;;;;10.13;5.43;;;7.00;90.30;;;;;;5037878;28;20894;-80
2022/04/12 04:27:36;;;;;;;8.75;5.45;;;6.80;90.40;;;;;;5037912;28;20082;-81
2022/04/12 04:30:04;;;;;;;12.60;5.32;;;6.80;90.60;;;;;;5032578;28;20068;-80
2022/04/12 04:32:31;;;;;;;13.80;5.82;;;6.60;91.20;;;;;;5039803;28;20040;-79
2022/04/12 04:34:56;;;;;;;10.07;5.00;;;6.40;91.50;;;;;;5038103;28;20029;-80
2022/04/12 04:37:22;;;;;;;12.32;5.60;;;6.60;91.30;;;;;;5042292;28;20562;-81
2022/04/12 04:39:48;;;;;;;9.38;5.22;;;6.40;91.60;;;;;;5037485;28;20502;-80
2022/04/12 04:42:13;;;;;;;10.48;5.95;;;6.90;90.80;;;;;;5042254;28;20635;-81
2022/04/12 04:44:39;;;;;;;9.30;5.20;;;7.00;90.60;;;;;;5030311;28;20112;-80
2022/04/12 04:47:05;;;;;;;9.93;5.65;;;6.80;91.00;;;;;;5031896;28;20032;-80
2022/04/12 04:49:30;;;;;;;11.32;5.82;;;6.70;91.10;;;;;;5019664;28;20036;-80
2022/04/12 04:51:56;;;;;;;10.25;5.57;;;6.80;91.10;;;;;;5028618;28;20057;-81
2022/04/12 04:54:22;;;;;;;10.18;6.05;;;6.80;91.20;;;;;;5030259;28;20033;-80
2022/04/12 04:56:47;;;;;;;9.40;5.50;;;7.00;90.70;;;;;;5025374;28;20212;-80
2022/04/12 04:59:13;;;;;;;14.63;5.63;;;6.70;91.30;;;;;;5022386;28;20024;-80
2022/04/12 05:01:39;;;;;;;9.20;4.63;;;6.60;91.50;;;;;;5019635;28;20169;-80
2022/04/12 05:04:05;;;;;;;10.32;5.70;;;6.30;91.90;;;;;;5039391;28;20048;-80
2022/04/12 05:06:31;;;;;;;10.50;5.85;;;6.20;92.40;;;;;;5043727;28;20033;-80
2022/04/12 05:08:57;;;;;;;11.18;6.30;;;6.30;92.20;;;;;;5040944;28;20447;-80
2022/04/12 05:11:23;;;;;;;14.52;5.88;;;6.70;91.60;;;;;;5036174;28;20120;-78
2022/04/12 05:13:48;;;;;;;11.57;5.38;;;6.80;91.30;;;;;;5041217;28;20486;-80
2022/04/12 05:16:14;;;;;;;11.05;5.18;;;7.00;91.10;;;;;;5034660;28;20375;-80
2022/04/12 05:18:40;;;;;;;10.95;6.05;;;6.90;91.20;;;;;;5033759;28;20487;-80
2022/04/12 05:21:05;;;;;;;12.95;5.45;;;6.70;91.60;;;;;;5037528;28;20041;-79
2022/04/12 05:23:31;;;;;;;9.65;4.88;;;6.60;91.80;;;;;;5036024;28;20025;-79
2022/04/12 05:25:56;;;;;;;11.60;6.30;;;6.60;92.10;;;;;;5036505;28;20490;-80
2022/04/12 05:28:22;;;;;;;11.52;5.47;;;6.60;92.00;;;;;;5041617;28;20368;-79
2022/04/12 05:30:50;;;;;;;10.18;5.25;;;6.80;91.90;;;;;;5035438;28;20141;-79
2022/04/12 05:33:15;;;;;;;11.73;6.22;;;6.80;92.10;;;;;;5029924;28;20048;-80
2022/04/12 05:35:41;;;;;;;10.25;5.03;;;7.00;91.90;;;;;;5034455;28;20032;-81
2022/04/12 05:38:07;;;;;;;9.73;5.10;;;7.00;91.90;;;;;;5045422;28;20048;-82
2022/04/12 05:40:34;;;;;;;11.95;4.75;;;7.00;91.90;;;;;;5023945;28;20041;-82
2022/04/12 05:43:00;;;;;;;14.77;5.55;;;7.00;92.20;;;;;;5043724;28;20110;-81
2022/04/12 05:45:26;;;;;;;11.63;5.43;;;6.90;92.00;;;;;;5042565;28;20127;-81
2022/04/12 05:47:53;;;;;;;10.50;5.90;;;7.00;92.00;;;;;;5046089;28;20559;-81
2022/04/12 05:50:21;;;;;;;10.75;4.95;;;7.10;92.00;;;;;;5034922;28;20025;-82
2022/04/12 05:52:46;;;;;;;9.90;4.65;;;7.00;91.80;;;;;;5026189;28;22230;-81
2022/04/12 05:55:17;;;;;;;10.95;5.43;;;6.90;92.20;;;;;;5024851;28;20163;-81
2022/04/12 05:58:00;;;;;;;9.88;5.32;;;6.90;92.40;;;;;;5043226;28;20108;-81
2022/04/12 06:00:29;;;;;;;10.63;5.25;;;7.00;92.20;;;;;;5042030;28;20020;-82
2022/04/12 06:02:55;;;;;;;14.85;6.13;;;7.10;92.10;;;;;;5045159;28;20077;-82
2022/04/12 06:05:23;;;;;;;9.13;5.13;;;7.10;92.20;;;;;;5039691;28;20118;-82
2022/04/12 06:07:49;;;;;;;10.77;4.47;;;7.30;91.90;;;;;;5044006;28;20021;-82
2022/04/12 06:10:17;;;;;;;10.25;5.60;;;7.40;92.00;;;;;;5029453;28;20914;-81
2022/04/12 06:12:43;;;;;;;10.88;5.57;;;7.40;92.00;;;;;;5045130;28;20035;-82
2022/04/12 06:15:09;;;;;;;12.10;6.38;;;7.40;92.20;;;;;;5037306;28;20029;-82
2022/04/12 06:17:37;;;;;;;11.73;5.28;;;7.30;92.00;;;;;;5051262;28;20033;-79
2022/04/12 06:20:11;;;;;;;12.25;6.60;;;7.30;92.10;;;;;;5042415;28;20039;-80
2022/04/12 06:22:38;;;;;;;10.40;5.35;;;7.30;91.90;;;;;;5037907;28;20033;-81
2022/04/12 06:25:05;;;;;;;9.40;4.97;;;7.40;91.50;;;;;;5041749;28;20040;-80
2022/04/12 06:27:35;;;;;;;9.68;5.22;;;7.50;92.10;;;;;;5041041;28;20398;-81
2022/04/12 06:30:13;;;;;;;9.32;4.95;;;7.50;92.90;;;;;;5043772;28;20035;-80
2022/04/12 06:32:39;;;;;;;9.05;4.63;;;7.60;92.40;;;;;;5020875;28;20045;-80
2022/04/12 06:35:07;;;;;;;10.10;4.75;;;7.60;92.60;;;;;;5023163;28;20033;-81
2022/04/12 06:37:33;;;;;;;12.85;5.57;;;7.70;92.70;;;;;;5044586;28;20043;-81
2022/04/12 06:39:59;;;;;;;8.93;5.28;;;7.80;92.60;;;;;;5045564;28;20033;-81
2022/04/12 06:42:26;;;;;;;11.77;5.32;;;8.00;92.60;;;;;;5041947;28;20036;-81
2022/04/12 06:44:52;;;;;;;9.57;4.82;;;8.30;92.50;;;;;;5040232;28;20025;-81
2022/04/12 06:47:18;;;;;;;11.32;5.38;;;9.50;91.20;;;;;;5029783;28;20029;-81
2022/04/12 06:49:49;;;;;;;9.68;4.47;;;10.60;88.80;;;;;;5019843;28;20044;-82
2022/04/12 06:52:16;;;;;;;7.45;4.35;;;11.50;84.70;;;;;;5023338;28;20029;-82
2022/04/12 06:54:41;;;;;;;8.05;4.32;;;12.40;83.00;;;;;;5023324;28;20101;-78
2022/04/12 06:57:07;;;;;;;8.95;4.25;;;13.30;80.70;;;;;;5019028;28;20121;-81
2022/04/12 06:59:34;;;;;;;10.32;3.78;;;13.90;78.40;;;;;;5023292;28;20130;-79
2022/04/12 07:02:01;;;;;;;8.75;4.55;;;14.20;77.20;;;;;;5026732;28;20037;-80
2022/04/12 07:04:27;;;;;;;8.85;4.10;;;14.50;77.40;;;;;;5017092;28;20057;-77
2022/04/12 07:06:53;;;;;;;8.23;5.25;;;14.50;76.30;;;;;;5018426;28;20067;-77
2022/04/12 07:09:21;;;;;;;11.43;5.20;;;15.10;75.50;;;;;;5028781;28;20119;-78
2022/04/12 07:11:47;;;;;;;10.82;4.40;;;16.30;73.50;;;;;;5039943;28;20041;-76
2022/04/12 07:14:13;;;;;;;7.53;4.43;;;15.90;72.00;;;;;;5031444;28;20041;-78
2022/04/12 07:16:39;;;;;;;8.50;4.97;;;16.70;71.90;;;;;;5031088;28;20029;-76
2022/04/12 07:19:05;;;;;;;8.55;4.53;;;16.10;70.70;;;;;;5028936;28;20079;-82
2022/04/12 07:21:31;;;;;;;9.63;5.55;;;16.30;71.20;;;;;;5045379;28;20029;-80
2022/04/12 07:23:59;;;;;;;10.25;4.82;;;16.40;71.00;;;;;;5046768;28;20167;-80
2022/04/12 07:26:25;;;;;;;10.80;5.40;;;16.00;70.30;;;;;;5040420;28;20040;-76
2022/04/12 07:28:51;;;;;;;10.73;5.70;;;15.60;71.00;;;;;;5039637;28;20028;-79
2022/04/12 07:31:17;;;;;;;12.13;6.60;;;13.40;73.90;;;;;;5035567;28;20033;-79
2022/04/12 07:33:42;;;;;;;9.60;5.53;;;11.90;77.20;;;;;;5036511;28;21095;-78
2022/04/12 07:36:08;;;;;;;9.07;5.22;;;11.00;79.40;;;;;;5043917;28;20080;-79
2022/04/12 07:38:34;;;;;;;10.48;5.55;;;10.50;81.60;;;;;;5041733;28;20061;-84
2022/04/12 07:40:59;;;;;;;10.82;5.70;;;10.20;82.10;;;;;;5032584;28;20028;-78
2022/04/12 07:43:25;;;;;;;11.80;5.72;;;10.00;83.00;;;;;;5032424;28;20029;-77
2022/04/12 07:45:51;;;;;;;10.93;6.18;;;10.00;84.50;;;;;;5037646;28;20033;-76
2022/04/12 07:48:16;;;;;;;11.57;5.57;;;9.90;86.30;;;;;;5043375;28;20529;-78
2022/04/12 07:50:42;;;;;;;10.90;6.22;;;9.80;85.30;;;;;;5021063;28;20087;-78
2022/04/12 07:53:08;;;;;;;11.18;5.78;;;10.00;85.80;;;;;;5020620;28;20101;-78
2022/04/12 07:55:34;;;;;;;10.20;5.85;;;10.00;85.50;;;;;;5039856;28;20063;-78
2022/04/12 07:57:59;;;;;;;9.27;5.80;;;10.10;84.20;;;;;;5036677;28;20021;-76
2022/04/12 08:00:25;;;;;;;9.93;5.68;;;10.10;82.90;;;;;;5039003;28;20139;-76
2022/04/12 08:02:50;;;;;;;11.68;6.90;;;10.10;84.30;;;;;;5045005;28;20033;-76
2022/04/12 08:05:16;;;;;;;12.10;6.57;;;10.30;85.60;;;;;;5042425;28;20049;-75
2022/04/12 08:07:48;;;;;;;11.20;5.80;;;10.30;84.60;;;;;;5044482;28;20435;-80
2022/04/12 08:10:17;;;;;;;9.95;5.88;;;10.40;85.30;;;;;;5040129;28;20106;-77
2022/04/12 08:12:44;;;;;;;14.07;5.88;;;10.40;84.50;;;;;;5037597;28;20131;-81
2022/04/12 08:15:15;;;;;;;11.32;6.05;;;10.40;84.20;;;;;;5038911;28;20083;-73
2022/04/12 08:17:41;;;;;;;10.23;6.35;;;10.50;85.60;;;;;;5043016;28;20040;-78
2022/04/12 08:20:13;;;;;;;15.00;6.90;;;10.50;83.00;;;;;;5042865;28;20383;-80
2022/04/12 08:22:39;;;;;;;14.20;7.35;;;10.30;82.80;;;;;;5019442;28;20013;-77
2022/04/12 08:25:05;;;;;;;14.77;7.20;;;10.50;83.40;;;;;;5018416;28;20412;-79
2022/04/12 08:27:31;;;;;;;18.98;6.95;;;10.60;83.60;;;;;;5019767;28;20036;-77
2022/04/12 08:29:57;;;;;;;9.73;6.15;;;10.80;83.60;;;;;;5026749;28;20036;-77
2022/04/12 08:32:22;;;;;;;10.75;6.63;;;10.90;84.00;;;;;;5042860;28;20047;-76
2022/04/12 08:34:48;;;;;;;14.57;6.95;;;11.20;84.70;;;;;;5043961;28;20033;-77
2022/04/12 08:37:14;;;;;;;13.30;7.38;;;11.20;82.60;;;;;;5043053;28;20459;-76
2022/04/12 08:39:40;;;;;;;12.98;6.35;;;11.20;82.70;;;;;;5023186;28;20048;-75
2022/04/12 08:42:06;;;;;;;13.48;7.15;;;11.30;82.60;;;;;;5025595;28;20124;-75
2022/04/12 08:44:33;;;;;;;13.60;7.00;;;11.60;83.00;;;;;;5033328;28;20033;-75
2022/04/12 08:47:02;;;;;;;12.73;7.05;;;11.70;83.50;;;;;;5043384;28;20033;-77
2022/04/12 08:49:29;;;;;;;13.75;6.70;;;12.90;81.50;;;;;;5040567;28;20410;-77
2022/04/12 08:51:55;;;;;;;18.15;6.93;;;15.20;77.00;;;;;;5040983;28;20075;-77
2022/04/12 08:54:22;;;;;;;11.23;6.43;;;16.30;74.60;;;;;;5039529;28;20037;-77
2022/04/12 08:56:52;;;;;;;17.38;8.48;;;16.50;73.10;;;;;;5043636;28;20445;-77
2022/04/12 08:59:18;;;;;;;13.63;7.50;;;16.90;73.00;;;;;;5039721;28;20033;-77
2022/04/12 09:01:46;;;;;;;11.00;6.63;;;16.80;72.90;;;;;;5043966;28;20119;-77
2022/04/12 09:04:13;;;;;;;14.35;7.80;;;16.90;72.50;;;;;;5000115;28;1158106;-78
2022/04/12 09:06:56;;;;;;;17.38;6.78;;;17.70;72.50;;;;;;5042494;28;20096;-78
2022/04/12 09:09:25;;;;;;;24.50;8.90;;;17.40;72.40;;;;;;5043982;28;20120;-78
2022/04/12 09:12:09;;;;;;;15.32;8.25;;;17.70;71.10;;;;;;5044309;28;20080;-78
2022/04/12 09:14:48;;;;;;;12.20;6.88;;;16.10;73.20;;;;;;5038134;28;20055;-78
2022/04/12 09:17:15;;;;;;;11.77;6.90;;;16.60;73.60;;;;;;5034098;28;20518;-78
2022/04/12 09:19:49;;;;;;;12.65;7.00;;;16.60;72.60;;;;;;5043922;28;20068;-78
2022/04/12 09:22:16;;;;;;;16.47;8.00;;;16.60;73.40;;;;;;5029882;28;20033;-78
2022/04/12 09:24:50;;;;;;;15.90;8.27;;;17.40;72.10;;;;;;5034683;28;20040;-78
2022/04/12 09:27:21;;;;;;;15.85;8.55;;;16.70;71.10;;;;;;5043116;28;20403;-78
2022/04/12 09:29:49;;;;;;;15.02;8.27;;;15.30;71.30;;;;;;5038904;28;20544;-78
2022/04/12 09:32:15;;;;;;;13.07;7.40;;;14.50;73.50;;;;;;5035627;28;20041;-78
2022/04/12 09:34:44;;;;;;;17.50;7.95;;;14.30;74.00;;;;;;5041206;28;20067;-78
2022/04/12 09:37:24;;;;;;;16.17;8.32;;;14.00;74.40;;;;;;5042107;28;20033;-78
2022/04/12 09:39:59;;;;;;;16.80;7.90;;;13.90;75.60;;;;;;5042390;28;20102;-78
2022/04/12 09:42:49;;;;;;;13.18;8.07;;;14.30;74.70;;;;;;5040247;28;20044;-78
2022/04/12 09:45:17;;;;;;;15.20;8.85;;;14.30;76.00;;;;;;5040064;28;20650;-78
2022/04/12 09:47:44;;;;;;;16.13;10.95;;;14.30;73.80;;;;;;5041599;28;20091;-78
2022/04/12 09:50:11;;;;;;;16.95;9.98;;;14.30;74.10;;;;;;5036624;28;20037;-78
2022/04/12 09:52:37;;;;;;;20.67;13.20;;;14.30;74.50;;;;;;5042657;28;20098;-76
2022/04/12 09:55:05;;;;;;;15.32;8.48;;;14.40;73.50;;;;;;5039407;28;20467;-76
2022/04/12 09:57:31;;;;;;;16.67;8.93;;;14.20;74.40;;;;;;5040679;28;21110;-76
2022/04/12 09:59:58;;;;;;;13.85;8.75;;;14.50;75.70;;;;;;5031528;28;20589;-75
2022/04/12 10:02:27;;;;;;;17.50;9.20;;;14.60;74.40;;;;;;5037348;28;20063;-75
2022/04/12 10:04:54;;;;;;;17.27;10.35;;;14.50;74.60;;;;;;5043024;28;20091;-76
2022/04/12 10:07:22;;;;;;;15.38;9.43;;;14.50;73.90;;;;;;5036503;28;20120;-78
2022/04/12 10:09:50;;;;;;;16.42;9.35;;;14.70;74.40;;;;;;5039783;28;20451;-76
2022/04/12 10:12:17;;;;;;;17.50;8.90;;;14.40;73.40;;;;;;5026233;28;20041;-76
2022/04/12 10:14:43;;;;;;;17.05;8.57;;;14.40;74.50;;;;;;5032810;28;20499;-76
2022/04/12 10:17:10;;;;;;;16.00;8.65;;;14.70;75.30;;;;;;5031334;28;20112;-78
2022/04/12 10:19:36;;;;;;;15.48;8.85;;;14.90;76.30;;;;;;5035630;28;20025;-75
2022/04/12 10:22:03;;;;;;;18.33;11.27;;;15.30;75.20;;;;;;5037522;28;20033;-76
2022/04/12 10:24:30;;;;;;;18.33;10.85;;;15.70;75.80;;;;;;5036478;28;20062;-75
2022/04/12 10:26:57;;;;;;;17.67;10.60;;;15.50;74.40;;;;;;5035933;28;20088;-76
2022/04/12 10:29:23;;;;;;;18.58;10.93;;;15.40;74.80;;;;;;5036747;28;20470;-76
2022/04/12 10:32:12;;;;;;;16.10;10.43;;;15.50;75.40;;;;;;5036467;28;20110;-76
2022/04/12 10:34:58;;;;;;;24.08;9.45;;;15.40;75.00;;;;;;5041161;28;20040;-75
2022/04/12 10:37:24;;;;;;;16.33;9.40;;;15.20;74.50;;;;;;5041940;28;20040;-76
2022/04/12 10:40:03;;;;;;;16.15;9.65;;;15.20;73.50;;;;;;5037882;28;20033;-76
2022/04/12 10:42:33;;;;;;;19.45;9.38;;;15.50;76.40;;;;;;5042291;28;20471;-76
2022/04/12 10:45:02;;;;;;;18.52;10.77;;;15.40;72.80;;;;;;5033664;28;20025;-76
2022/04/12 10:47:33;;;;;;;18.00;10.15;;;15.40;73.10;;;;;;5037656;28;20029;-75
2022/04/12 10:50:08;;;;;;;18.70;9.73;;;15.40;73.80;;;;;;5042732;28;20064;-76
2022/04/12 10:52:51;;;;;;;16.55;9.20;;;15.80;73.60;;;;;;5038119;28;20063;-76
2022/04/12 10:55:23;;;;;;;20.38;9.98;;;15.90;73.60;;;;;;5041081;28;20040;-76
2022/04/12 10:57:50;;;;;;;16.40;9.75;;;15.80;71.90;;;;;;5036872;28;20067;-76
2022/04/12 11:00:16;;;;;;;14.27;9.82;;;15.80;72.00;;;;;;5038310;28;20044;-76
2022/04/12 11:02:45;;;;;;;16.23;9.40;;;16.20;72.90;;;;;;5046363;28;20459;-75
2022/04/12 11:05:37;;;;;;;18.00;10.63;;;16.70;72.30;;;;;;5042922;28;20495;-75
2022/04/12 11:08:34;;;;;;;14.07;9.23;;;17.00;73.00;;;;;;5038373;28;20076;-75
2022/04/12 11:11:00;;;;;;;16.55;10.25;;;16.90;71.40;;;;;;5030045;28;20139;-75
2022/04/12 11:13:30;;;;;;;16.05;9.82;;;16.80;72.70;;;;;;5037934;28;20081;-75
2022/04/12 11:15:57;;;;;;;17.45;10.10;;;16.80;72.20;;;;;;5042634;28;20503;-76
2022/04/12 11:18:23;;;;;;;17.83;9.48;;;17.20;73.80;;;;;;5044065;28;20025;-76
2022/04/12 11:21:00;;;;;;;16.45;9.50;;;17.70;71.00;;;;;;5041318;28;20044;-75
2022/04/12 11:23:52;;;;;;;17.73;9.70;;;17.90;71.80;;;;;;5045214;28;20108;-76
2022/04/12 11:26:40;;;;;;;14.63;9.73;;;18.10;72.20;;;;;;5039591;28;20056;-76
2022/04/12 11:29:09;;;;;;;27.13;11.20;;;18.20;72.10;;;;;;5044173;28;20033;-75
2022/04/12 11:31:43;;;;;;;20.50;9.95;;;18.30;70.70;;;;;;5038639;28;20569;-76
2022/04/12 11:34:09;;;;;;;15.15;9.85;;;18.20;72.10;;;;;;5043960;28;20043;-76
2022/04/12 11:36:37;;;;;;;23.92;10.38;;;18.30;72.00;;;;;;5045269;28;20168;-76
2022/04/12 11:39:03;;;;;;;18.02;9.75;;;18.30;71.20;;;;;;5044321;28;20108;-76
2022/04/12 11:41:29;;;;;;;20.67;11.20;;;18.30;70.30;;;;;;5043496;28;20112;-76
2022/04/12 11:44:03;;;;;;;20.25;11.65;;;18.20;71.40;;;;;;5044318;28;20029;-76
2022/04/12 11:46:30;;;;;;;18.45;10.32;;;18.30;70.40;;;;;;5046166;28;20083;-76
2022/04/12 11:49:13;;;;;;;16.83;10.63;;;18.20;70.80;;;;;;5039576;28;20104;-76
2022/04/12 11:51:44;;;;;;;16.50;10.25;;;18.60;70.90;;;;;;5043062;28;20182;-76
2022/04/12 11:54:30;;;;;;;16.60;9.98;;;18.50;71.20;;;;;;5041090;28;20612;-76
2022/04/12 11:57:12;;;;;;;18.60;9.95;;;18.70;71.50;;;;;;5047327;28;20029;-76
2022/04/12 11:59:43;;;;;;;14.65;9.23;;;18.50;69.80;;;;;;5047488;28;20032;-76
2022/04/12 12:02:09;;;;;;;14.48;9.38;;;18.70;72.60;;;;;;5046775;28;20037;-76
2022/04/12 12:04:36;;;;;;;16.08;9.43;;;18.70;69.90;;;;;;5040117;28;20052;-76
2022/04/12 12:07:05;;;;;;;15.98;9.38;;;18.90;72.10;;;;;;5046772;28;20037;-76
2022/04/12 12:09:32;;;;;;;20.67;9.98;;;19.00;71.20;;;;;;5046258;28;20483;-76
2022/04/12 12:12:00;;;;;;;16.35;9.10;;;18.70;69.90;;;;;;5044857;28;20045;-76
2022/04/12 12:14:27;;;;;;;19.50;9.63;;;18.60;69.20;;;;;;5042429;28;20127;-76
2022/04/12 12:17:18;;;;;;;18.77;9.55;;;18.50;68.50;;;;;;5045022;28;20027;-76
2022/04/12 12:19:46;;;;;;;22.55;9.30;;;18.60;69.50;;;;;;5046853;28;20036;-76
2022/04/12 12:22:13;;;;;;;18.15;9.57;;;18.60;69.40;;;;;;5043879;28;20033;-76
2022/04/12 12:24:56;;;;;;;18.05;9.70;;;18.80;70.20;;;;;;5037405;28;20033;-76
2022/04/12 12:27:33;;;;;;;17.77;10.00;;;18.80;69.10;;;;;;5038725;28;20060;-76
2022/04/12 12:30:07;;;;;;;32.95;10.02;;;18.70;69.90;;;;;;5041598;28;20727;-76
2022/04/12 12:32:40;;;;;;;15.20;8.25;;;18.70;69.40;;;;;;5046842;28;20048;-76
2022/04/12 12:35:13;;;;;;;18.40;9.63;;;18.80;69.30;;;;;;5044949;28;20048;-76
2022/04/12 12:37:40;;;;;;;16.33;9.20;;;19.10;70.30;;;;;;5049090;28;20025;-76
2022/04/12 12:40:20;;;;;;;13.52;9.15;;;19.40;69.90;;;;;;5045393;28;20026;-76
2022/04/12 12:42:50;;;;;;;17.13;8.82;;;19.40;68.90;;;;;;5047213;28;20032;-76
2022/04/12 12:45:18;;;;;;;15.73;8.98;;;19.30;68.60;;;;;;5040610;28;20523;-76
2022/04/12 12:47:46;;;;;;;14.98;8.48;;;19.50;69.50;;;;;;5048457;28;20044;-77
2022/04/12 12:50:14;;;;;;;17.83;10.43;;;19.60;68.90;;;;;;5047371;28;20052;-76